Time;durP1;ratioP1;P1;durP2;ratioP2;P2;SDS_P1;SDS_P2;PMS_P1;PMS_P2;Temp;Humidity;BMP_temperature;BMP_pressure;BME280_temperature;BME280_humidity;BME280_pressure;Samples;Min_cycle;Max_cycle;Signal;HPM_P1;HPM_P2
2022/11/27 00:01:32;;;;;;;4.30;2.50;;;;;;;;;;4966448;28;20184;-63
2022/11/27 00:03:58;;;;;;;4.40;2.43;;;;;;;;;;4964680;28;20176;-63
2022/11/27 00:06:26;;;;;;;5.73;2.77;;;;;;;;;;4965629;28;20176;-63
2022/11/27 00:08:52;;;;;;;3.47;2.50;;;;;;;;;;4965356;28;20663;-63
2022/11/27 00:11:20;;;;;;;6.00;2.70;;;;;;;;;;4967486;28;20176;-63
2022/11/27 00:13:46;;;;;;;6.90;2.73;;;;;;;;;;4965279;28;20667;-62
2022/11/27 00:16:13;;;;;;;4.37;2.47;;;;;;;;;;4966146;28;20179;-63
2022/11/27 00:18:39;;;;;;;4.63;2.97;;;;;;;;;;4964139;28;20315;-62
2022/11/27 00:21:07;;;;;;;6.43;2.60;;;;;;;;;;4965775;28;20179;-65
2022/11/27 00:23:33;;;;;;;4.03;2.27;;;;;;;;;;4970927;28;20251;-62
2022/11/27 00:26:10;;;;;;;5.97;1.83;;;;;;;;;;4997975;28;20190;-64
2022/11/27 00:28:37;;;;;;;6.77;2.10;;;;;;;;;;4953115;28;20189;-63
2022/11/27 00:31:05;;;;;;;6.20;2.60;;;;;;;;;;4975674;28;20266;-62
2022/11/27 00:33:31;;;;;;;6.33;2.57;;;;;;;;;;4972497;28;20179;-65
2022/11/27 00:36:04;;;;;;;3.93;2.27;;;;;;;;;;4979857;28;20734;-66
2022/11/27 00:38:30;;;;;;;3.63;2.40;;;;;;;;;;4972713;28;20601;-62
2022/11/27 00:41:04;;;;;;;6.40;2.43;;;;;;;;;;4960080;28;20664;-62
2022/11/27 00:43:31;;;;;;;3.00;2.17;;;;;;;;;;4958710;28;20175;-62
2022/11/27 00:45:57;;;;;;;8.20;2.70;;;;;;;;;;4955604;28;20212;-62
2022/11/27 00:48:23;;;;;;;5.87;1.90;;;;;;;;;;4974256;28;20222;-62
2022/11/27 00:50:49;;;;;;;4.77;1.90;;;;;;;;;;4993922;28;20501;-63
2022/11/27 00:53:15;;;;;;;3.13;2.13;;;;;;;;;;4987072;28;20206;-62
2022/11/27 00:55:41;;;;;;;3.97;2.80;;;;;;;;;;4988344;28;20298;-63
2022/11/27 00:58:07;;;;;;;3.67;2.20;;;;;;;;;;4988940;28;20505;-62
2022/11/27 01:00:33;;;;;;;4.47;2.20;;;;;;;;;;4987818;28;20572;-62
2022/11/27 01:02:59;;;;;;;8.40;3.17;;;;;;;;;;4988011;28;20287;-63
2022/11/27 01:05:25;;;;;;;5.40;2.83;;;;;;;;;;5000306;28;20189;-62
2022/11/27 01:07:51;;;;;;;4.27;1.83;;;;;;;;;;4993368;28;20222;-62
2022/11/27 01:10:17;;;;;;;7.13;3.07;;;;;;;;;;4989392;28;20191;-62
2022/11/27 01:12:43;;;;;;;3.53;2.20;;;;;;;;;;4974768;28;20202;-63
2022/11/27 01:15:09;;;;;;;5.20;2.10;;;;;;;;;;5005508;28;20207;-62
2022/11/27 01:17:35;;;;;;;4.60;2.50;;;;;;;;;;4984511;28;20178;-62
2022/11/27 01:20:01;;;;;;;2.57;2.30;;;;;;;;;;4999995;28;20182;-62
2022/11/27 01:22:27;;;;;;;3.17;1.90;;;;;;;;;;4993552;28;20190;-62
2022/11/27 01:24:53;;;;;;;3.37;1.93;;;;;;;;;;4975414;28;20669;-62
2022/11/27 01:27:19;;;;;;;3.23;2.03;;;;;;;;;;4997910;28;20186;-62
2022/11/27 01:29:45;;;;;;;3.63;2.20;;;;;;;;;;4992546;28;20187;-63
2022/11/27 01:32:11;;;;;;;4.77;2.30;;;;;;;;;;4990702;28;20187;-62
2022/11/27 01:34:37;;;;;;;5.03;2.40;;;;;;;;;;4987080;28;20190;-62
2022/11/27 01:37:03;;;;;;;4.90;2.73;;;;;;;;;;4999809;28;20658;-63
2022/11/27 01:39:29;;;;;;;4.73;2.33;;;;;;;;;;4999723;28;20723;-63
2022/11/27 01:41:55;;;;;;;8.33;3.00;;;;;;;;;;4998274;28;20266;-62
2022/11/27 01:44:24;;;;;;;6.67;2.20;;;;;;;;;;5003008;28;20266;-62
2022/11/27 01:47:05;;;;;;;3.70;2.00;;;;;;;;;;4993922;28;20191;-63
2022/11/27 01:49:39;;;;;;;2.83;2.40;;;;;;;;;;4992635;28;20561;-62
2022/11/27 01:52:05;;;;;;;4.17;1.90;;;;;;;;;;4990910;28;20258;-63
2022/11/27 01:54:34;;;;;;;4.50;2.17;;;;;;;;;;4999043;28;20245;-63
2022/11/27 01:57:02;;;;;;;5.77;2.37;;;;;;;;;;4997534;28;20202;-62
2022/11/27 01:59:28;;;;;;;3.83;2.13;;;;;;;;;;5003487;28;20178;-62
2022/11/27 02:01:54;;;;;;;3.07;1.90;;;;;;;;;;4977968;28;20191;-62
2022/11/27 02:04:20;;;;;;;2.87;2.00;;;;;;;;;;5006299;28;20617;-62
2022/11/27 02:06:47;;;;;;;4.40;2.20;;;;;;;;;;4997683;28;20277;-62
2022/11/27 02:09:13;;;;;;;5.20;2.13;;;;;;;;;;4998966;28;20689;-62
2022/11/27 02:11:39;;;;;;;3.37;2.33;;;;;;;;;;4998288;28;20229;-63
2022/11/27 02:14:28;;;;;;;5.73;1.83;;;;;;;;;;4973205;28;20587;-62
2022/11/27 02:16:54;;;;;;;2.87;2.07;;;;;;;;;;4984142;28;20727;-62
2022/11/27 02:19:20;;;;;;;5.47;2.20;;;;;;;;;;4987638;28;20186;-62
2022/11/27 02:22:02;;;;;;;3.43;2.23;;;;;;;;;;4999103;28;20198;-62
2022/11/27 02:24:37;;;;;;;6.83;2.03;;;;;;;;;;4989551;28;20222;-63
2022/11/27 02:27:39;;;;;;;4.87;1.97;;;;;;;;;;4989289;28;20507;-63
2022/11/27 02:30:05;;;;;;;4.43;1.93;;;;;;;;;;4921539;29;20204;-63
2022/11/27 02:32:37;;;;;;;1.53;1.43;;;;;;;;;;4979683;28;20277;-62
2022/11/27 02:35:06;;;;;;;2.17;1.90;;;;;;;;;;4992418;28;20666;-62
2022/11/27 02:37:35;;;;;;;4.33;2.07;;;;;;;;;;4998774;28;20186;-63
2022/11/27 02:40:06;;;;;;;3.47;2.17;;;;;;;;;;4993191;28;20594;-63
2022/11/27 02:42:36;;;;;;;7.07;2.33;;;;;;;;;;4988852;28;20190;-62
2022/11/27 02:45:06;;;;;;;4.20;2.00;;;;;;;;;;4998616;28;20179;-62
2022/11/27 02:47:33;;;;;;;5.17;2.57;;;;;;;;;;4998405;28;20677;-62
2022/11/27 02:49:59;;;;;;;6.10;2.60;;;;;;;;;;5006096;28;20222;-62
2022/11/27 02:52:27;;;;;;;3.83;2.17;;;;;;;;;;4996998;28;20214;-62
2022/11/27 02:54:55;;;;;;;5.77;2.53;;;;;;;;;;4996741;28;20202;-62
2022/11/27 02:57:23;;;;;;;4.47;2.57;;;;;;;;;;4993793;28;20171;-63
2022/11/27 02:59:50;;;;;;;3.20;2.43;;;;;;;;;;4972329;28;20580;-63
2022/11/27 03:02:19;;;;;;;3.03;2.73;;;;;;;;;;4996599;28;20182;-62
2022/11/27 03:04:53;;;;;;;2.57;2.17;;;;;;;;;;4996713;28;20187;-62
2022/11/27 03:07:27;;;;;;;4.33;3.03;;;;;;;;;;4976159;28;20209;-63
2022/11/27 03:09:57;;;;;;;3.37;2.30;;;;;;;;;;4995076;28;20265;-62
2022/11/27 03:12:23;;;;;;;4.70;2.43;;;;;;;;;;4993489;28;20204;-62
2022/11/27 03:14:49;;;;;;;5.17;3.37;;;;;;;;;;4992495;28;20206;-62
2022/11/27 03:17:18;;;;;;;6.07;3.00;;;;;;;;;;4991170;28;20542;-62
2022/11/27 03:19:50;;;;;;;3.87;2.67;;;;;;;;;;4985037;28;20187;-62
2022/11/27 03:22:17;;;;;;;7.03;3.83;;;;;;;;;;4996670;28;20179;-63
2022/11/27 03:24:43;;;;;;;5.13;2.93;;;;;;;;;;4994316;28;20171;-62
2022/11/27 03:27:11;;;;;;;2.57;2.37;;;;;;;;;;4989067;28;20174;-62
2022/11/27 03:29:44;;;;;;;3.67;2.57;;;;;;;;;;4970887;28;20179;-62
2022/11/27 03:32:11;;;;;;;6.10;3.40;;;;;;;;;;4993551;28;20175;-63
2022/11/27 03:34:37;;;;;;;6.47;2.87;;;;;;;;;;4992371;28;20171;-63
2022/11/27 03:37:03;;;;;;;4.57;2.97;;;;;;;;;;4987963;28;20572;-62
2022/11/27 03:39:30;;;;;;;5.77;3.17;;;;;;;;;;4975779;28;20178;-62
2022/11/27 03:42:12;;;;;;;4.20;3.10;;;;;;;;;;4994849;28;20170;-62
2022/11/27 03:44:56;;;;;;;3.60;2.53;;;;;;;;;;4995609;28;20179;-63
2022/11/27 03:47:25;;;;;;;5.33;3.67;;;;;;;;;;4986624;28;20277;-62
2022/11/27 03:50:01;;;;;;;5.03;3.90;;;;;;;;;;4994222;28;20353;-62
2022/11/27 03:52:35;;;;;;;6.20;3.93;;;;;;;;;;4990898;28;20697;-62
2022/11/27 03:55:04;;;;;;;6.20;3.63;;;;;;;;;;4995962;28;20206;-63
2022/11/27 03:57:34;;;;;;;5.43;4.00;;;;;;;;;;4974314;28;20215;-62
2022/11/27 04:00:02;;;;;;;8.33;3.53;;;;;;;;;;4989435;28;20175;-62
2022/11/27 04:02:31;;;;;;;6.53;4.00;;;;;;;;;;4987748;28;20647;-62
2022/11/27 04:04:57;;;;;;;6.40;3.80;;;;;;;;;;4998081;28;20174;-63
2022/11/27 04:07:23;;;;;;;6.07;3.87;;;;;;;;;;4992752;28;20233;-62
2022/11/27 04:09:49;;;;;;;5.77;4.43;;;;;;;;;;4997527;28;20183;-62
2022/11/27 04:12:15;;;;;;;6.70;4.03;;;;;;;;;;5002914;28;20269;-62
2022/11/27 04:14:41;;;;;;;7.37;3.87;;;;;;;;;;5014848;28;20701;-63
2022/11/27 04:17:07;;;;;;;9.40;6.00;;;;;;;;;;4982494;28;20216;-62
2022/11/27 04:19:34;;;;;;;6.70;4.73;;;;;;;;;;4993627;28;20191;-62
2022/11/27 04:22:00;;;;;;;6.67;4.57;;;;;;;;;;4995400;28;20317;-62
2022/11/27 04:24:26;;;;;;;7.90;4.53;;;;;;;;;;4984367;28;20204;-63
2022/11/27 04:26:52;;;;;;;5.50;4.37;;;;;;;;;;4983672;28;20179;-63
2022/11/27 04:29:18;;;;;;;5.40;4.07;;;;;;;;;;4976366;28;20196;-62
2022/11/27 04:31:44;;;;;;;6.93;6.30;;;;;;;;;;4971491;28;20684;-62
2022/11/27 04:34:10;;;;;;;7.90;4.53;;;;;;;;;;4997444;28;20617;-62
2022/11/27 04:36:36;;;;;;;7.43;4.20;;;;;;;;;;5000612;28;20664;-62
2022/11/27 04:39:02;;;;;;;9.87;4.47;;;;;;;;;;4997366;28;20249;-63
2022/11/27 04:41:28;;;;;;;6.77;4.43;;;;;;;;;;5000864;28;20233;-63
2022/11/27 04:43:54;;;;;;;5.80;4.80;;;;;;;;;;4995026;28;20167;-62
2022/11/27 04:46:21;;;;;;;5.70;5.10;;;;;;;;;;4995299;28;20210;-63
2022/11/27 04:48:47;;;;;;;8.07;5.17;;;;;;;;;;4992069;28;20526;-62
2022/11/27 04:51:13;;;;;;;7.63;4.47;;;;;;;;;;5002979;28;20234;-62
2022/11/27 04:53:39;;;;;;;5.63;4.37;;;;;;;;;;4996971;28;20186;-63
2022/11/27 04:56:05;;;;;;;5.73;4.00;;;;;;;;;;4995433;28;20591;-62
2022/11/27 04:58:31;;;;;;;6.13;4.13;;;;;;;;;;5005308;28;20693;-62
2022/11/27 05:00:57;;;;;;;6.30;4.57;;;;;;;;;;4994649;28;20217;-62
2022/11/27 05:03:23;;;;;;;6.07;4.90;;;;;;;;;;4992649;28;20210;-62
2022/11/27 05:05:56;;;;;;;8.57;4.50;;;;;;;;;;4979601;28;20183;-63
2022/11/27 05:08:22;;;;;;;7.70;5.30;;;;;;;;;;4982112;28;20202;-62
2022/11/27 05:10:57;;;;;;;5.73;4.27;;;;;;;;;;4996705;28;20441;-62
2022/11/27 05:13:23;;;;;;;6.30;4.47;;;;;;;;;;4998266;28;20531;-63
2022/11/27 05:15:49;;;;;;;5.13;4.20;;;;;;;;;;4977815;28;20246;-62
2022/11/27 05:18:15;;;;;;;6.87;4.17;;;;;;;;;;4972227;28;20625;-62
2022/11/27 05:20:41;;;;;;;7.57;4.37;;;;;;;;;;4996208;28;20179;-62
2022/11/27 05:23:07;;;;;;;6.00;4.57;;;;;;;;;;4993543;28;20175;-62
2022/11/27 05:25:34;;;;;;;6.90;5.07;;;;;;;;;;4995892;28;20195;-62
2022/11/27 05:28:00;;;;;;;7.13;4.47;;;;;;;;;;4996168;28;20220;-62
2022/11/27 05:30:26;;;;;;;5.77;4.10;;;;;;;;;;4998981;28;20261;-62
2022/11/27 05:32:52;;;;;;;8.73;4.93;;;;;;;;;;4996375;28;20217;-62
2022/11/27 05:35:25;;;;;;;7.70;4.53;;;;;;;;;;4995278;28;20281;-62
2022/11/27 05:37:51;;;;;;;5.50;4.13;;;;;;;;;;4992890;28;20211;-62
2022/11/27 05:40:17;;;;;;;4.07;3.67;;;;;;;;;;4994661;28;20183;-62
2022/11/27 05:42:43;;;;;;;7.43;4.67;;;;;;;;;;4994514;28;20179;-62
2022/11/27 05:45:24;;;;;;;7.90;4.97;;;;;;;;;;4994591;28;20218;-62
2022/11/27 05:47:50;;;;;;;6.73;4.43;;;;;;;;;;4974512;28;20202;-62
2022/11/27 05:50:23;;;;;;;7.20;4.67;;;;;;;;;;4999787;28;20230;-62
2022/11/27 05:52:49;;;;;;;8.63;4.43;;;;;;;;;;5002287;28;20166;-62
2022/11/27 05:55:15;;;;;;;5.60;4.47;;;;;;;;;;4998745;28;20241;-62
2022/11/27 05:57:41;;;;;;;6.70;4.50;;;;;;;;;;4990130;28;20175;-62
2022/11/27 06:00:07;;;;;;;6.47;4.63;;;;;;;;;;5000619;28;20183;-62
2022/11/27 06:02:33;;;;;;;6.50;4.10;;;;;;;;;;4993734;28;20177;-62
2022/11/27 06:04:59;;;;;;;6.67;4.13;;;;;;;;;;4992672;28;20182;-62
2022/11/27 06:07:25;;;;;;;8.10;4.23;;;;;;;;;;5000307;28;20198;-62
2022/11/27 06:09:51;;;;;;;6.33;4.40;;;;;;;;;;4995210;28;20601;-61
2022/11/27 06:12:17;;;;;;;6.10;4.50;;;;;;;;;;4991392;28;20646;-62
2022/11/27 06:14:43;;;;;;;7.37;4.17;;;;;;;;;;4994457;28;20209;-62
2022/11/27 06:17:09;;;;;;;6.60;4.70;;;;;;;;;;5005844;28;20173;-62
2022/11/27 06:19:35;;;;;;;6.20;4.40;;;;;;;;;;4992277;28;20187;-62
2022/11/27 06:22:01;;;;;;;8.40;5.03;;;;;;;;;;4992393;28;20653;-62
2022/11/27 06:24:27;;;;;;;8.50;4.73;;;;;;;;;;4988797;28;20281;-62
2022/11/27 06:26:53;;;;;;;6.17;3.83;;;;;;;;;;4994934;28;20257;-62
2022/11/27 06:29:20;;;;;;;5.13;4.50;;;;;;;;;;4984279;28;20543;-62
2022/11/27 06:31:46;;;;;;;4.63;4.00;;;;;;;;;;4994718;28;20647;-62
2022/11/27 06:34:12;;;;;;;5.80;4.43;;;;;;;;;;4989111;28;20191;-62
2022/11/27 06:36:39;;;;;;;6.10;3.80;;;;;;;;;;4996970;28;20833;-62
2022/11/27 06:39:06;;;;;;;7.10;4.80;;;;;;;;;;4972098;28;20673;-62
2022/11/27 06:41:32;;;;;;;6.20;4.40;;;;;;;;;;4977212;28;20188;-62
2022/11/27 06:43:59;;;;;;;6.13;4.33;;;;;;;;;;4996052;28;20175;-62
2022/11/27 06:46:25;;;;;;;7.03;4.50;;;;;;;;;;5001604;28;20349;-62
2022/11/27 06:48:52;;;;;;;8.73;4.20;;;;;;;;;;4994364;28;20197;-61
2022/11/27 06:51:26;;;;;;;5.63;3.77;;;;;;;;;;5002383;28;20230;-62
2022/11/27 06:53:52;;;;;;;6.23;4.23;;;;;;;;;;4992564;28;20209;-62
2022/11/27 06:56:19;;;;;;;4.83;4.03;;;;;;;;;;4996921;28;20576;-61
2022/11/27 06:58:46;;;;;;;5.97;4.10;;;;;;;;;;5000709;28;20183;-61
2022/11/27 07:01:13;;;;;;;6.33;4.30;;;;;;;;;;4990371;28;20187;-62
2022/11/27 07:03:39;;;;;;;6.53;4.60;;;;;;;;;;4994722;28;20257;-62
2022/11/27 07:06:06;;;;;;;5.63;4.03;;;;;;;;;;4991113;28;20178;-61
2022/11/27 07:08:33;;;;;;;5.43;3.87;;;;;;;;;;4984580;28;20186;-61
2022/11/27 07:11:02;;;;;;;6.50;4.37;;;;;;;;;;5000229;28;20174;-61
2022/11/27 07:13:29;;;;;;;7.57;4.13;;;;;;;;;;4998256;28;20622;-61
2022/11/27 07:15:59;;;;;;;7.03;4.43;;;;;;;;;;4999225;28;20296;-61
2022/11/27 07:18:25;;;;;;;6.30;4.03;;;;;;;;;;4997659;28;20187;-61
2022/11/27 07:20:51;;;;;;;5.30;4.13;;;;;;;;;;4992211;28;20171;-61
2022/11/27 07:23:17;;;;;;;5.07;3.77;;;;;;;;;;4997603;28;20685;-61
2022/11/27 07:25:44;;;;;;;5.17;4.00;;;;;;;;;;4972712;28;20492;-61
2022/11/27 07:28:10;;;;;;;5.73;4.03;;;;;;;;;;4981911;28;20290;-61
2022/11/27 07:30:36;;;;;;;8.50;4.30;;;;;;;;;;5001388;28;20225;-61
2022/11/27 07:33:02;;;;;;;7.80;4.87;;;;;;;;;;4993456;28;20719;-61
2022/11/27 07:35:28;;;;;;;5.23;3.50;;;;;;;;;;4995754;28;20289;-61
2022/11/27 07:37:54;;;;;;;5.20;3.60;;;;;;;;;;4999150;28;20261;-61
2022/11/27 07:40:20;;;;;;;6.03;3.27;;;;;;;;;;5001457;28;20542;-61
2022/11/27 07:42:46;;;;;;;4.07;3.50;;;;;;;;;;4992393;28;20179;-61
2022/11/27 07:45:12;;;;;;;6.60;3.20;;;;;;;;;;4977064;28;20186;-61
2022/11/27 07:47:38;;;;;;;7.23;4.10;;;;;;;;;;4997531;28;20337;-60
2022/11/27 07:50:08;;;;;;;4.57;3.13;;;;;;;;;;4984945;28;20332;-62
2022/11/27 07:52:37;;;;;;;6.93;3.30;;;;;;;;;;4977003;28;20562;-62
2022/11/27 07:55:04;;;;;;;3.67;3.23;;;;;;;;;;4951705;28;20223;-61
2022/11/27 07:57:30;;;;;;;4.87;3.37;;;;;;;;;;4967975;28;20235;-61
2022/11/27 07:59:59;;;;;;;4.17;3.47;;;;;;;;;;4955323;28;20184;-61
2022/11/27 08:02:25;;;;;;;5.53;3.17;;;;;;;;;;4964469;28;20222;-61
2022/11/27 08:04:51;;;;;;;4.63;3.60;;;;;;;;;;4977757;28;20342;-61
2022/11/27 08:07:17;;;;;;;5.83;3.93;;;;;;;;;;4955979;28;20674;-61
2022/11/27 08:09:43;;;;;;;5.67;3.07;;;;;;;;;;4972027;28;20655;-61
2022/11/27 08:12:09;;;;;;;6.07;3.57;;;;;;;;;;4971260;28;20376;-61
2022/11/27 08:14:35;;;;;;;3.27;2.80;;;;;;;;;;4951840;28;20259;-61
2022/11/27 08:17:01;;;;;;;5.40;3.00;;;;;;;;;;4969916;28;20693;-61
2022/11/27 08:19:28;;;;;;;4.77;2.77;;;;;;;;;;4965763;28;20231;-61
2022/11/27 08:21:56;;;;;;;6.23;3.37;;;;;;;;;;4951880;28;20180;-61
2022/11/27 08:24:22;;;;;;;4.43;3.37;;;;;;;;;;4973139;28;20273;-61
2022/11/27 08:26:48;;;;;;;5.03;3.23;;;;;;;;;;4973053;28;20274;-60
2022/11/27 08:29:14;;;;;;;6.30;3.70;;;;;;;;;;4965699;28;20183;-61
2022/11/27 08:31:40;;;;;;;5.93;3.83;;;;;;;;;;4965939;28;20176;-61
2022/11/27 08:34:06;;;;;;;3.30;2.73;;;;;;;;;;4971583;28;20182;-61
2022/11/27 08:36:32;;;;;;;4.80;3.43;;;;;;;;;;4970377;28;20695;-61
2022/11/27 08:38:58;;;;;;;3.50;3.03;;;;;;;;;;4983930;28;20259;-61
2022/11/27 08:41:24;;;;;;;3.87;2.77;;;;;;;;;;4980894;28;20286;-61
2022/11/27 08:43:50;;;;;;;4.90;2.90;;;;;;;;;;4980615;28;20663;-61
2022/11/27 08:46:16;;;;;;;4.53;3.40;;;;;;;;;;4979486;28;20198;-61
2022/11/27 08:48:43;;;;;;;4.63;3.30;;;;;;;;;;4981183;28;20195;-61
2022/11/27 08:51:10;;;;;;;6.87;3.03;;;;;;;;;;4977373;28;20294;-60
2022/11/27 08:53:36;;;;;;;5.07;3.13;;;;;;;;;;4995537;28;20190;-61
2022/11/27 08:56:06;;;;;;;5.40;2.70;;;;;;;;;;5002866;28;20670;-61
2022/11/27 08:58:32;;;;;;;4.23;2.80;;;;;;;;;;5005209;28;20225;-61
2022/11/27 09:00:58;;;;;;;5.03;3.20;;;;;;;;;;4997197;28;20175;-61
2022/11/27 09:03:24;;;;;;;4.13;3.53;;;;;;;;;;5003091;28;20254;-61
2022/11/27 09:05:50;;;;;;;4.77;3.50;;;;;;;;;;4986474;28;20270;-62
2022/11/27 09:08:20;;;;;;;3.10;2.80;;;;;;;;;;5002664;28;20171;-61
2022/11/27 09:10:46;;;;;;;3.63;2.80;;;;;;;;;;4997064;28;20654;-62
2022/11/27 09:13:12;;;;;;;4.47;3.53;;;;;;;;;;4995427;28;20190;-61
2022/11/27 09:15:38;;;;;;;4.73;2.83;;;;;;;;;;4987005;28;20566;-61
2022/11/27 09:18:04;;;;;;;3.87;2.77;;;;;;;;;;4991858;28;20186;-62
2022/11/27 09:20:30;;;;;;;6.70;2.80;;;;;;;;;;5006976;28;20274;-62
2022/11/27 09:22:56;;;;;;;3.87;3.00;;;;;;;;;;4995716;28;20611;-62
2022/11/27 09:25:22;;;;;;;6.23;2.60;;;;;;;;;;4995722;28;20261;-62
2022/11/27 09:27:48;;;;;;;5.40;2.97;;;;;;;;;;5005748;28;20257;-62
2022/11/27 09:30:14;;;;;;;3.67;2.60;;;;;;;;;;4999229;28;20206;-62
2022/11/27 09:32:40;;;;;;;3.80;2.93;;;;;;;;;;4988983;28;20191;-62
2022/11/27 09:35:06;;;;;;;3.57;2.53;;;;;;;;;;5002361;28;20608;-61
2022/11/27 09:37:32;;;;;;;3.13;2.77;;;;;;;;;;4977733;28;20299;-61
2022/11/27 09:39:58;;;;;;;4.50;2.67;;;;;;;;;;4988727;28;20190;-61
2022/11/27 09:42:35;;;;;;;2.67;2.37;;;;;;;;;;4998352;28;20167;-61
2022/11/27 09:45:02;;;;;;;3.87;2.57;;;;;;;;;;5002078;28;20175;-61
2022/11/27 09:47:38;;;;;;;6.67;2.83;;;;;;;;;;4993678;28;20229;-61
2022/11/27 09:50:10;;;;;;;4.47;3.03;;;;;;;;;;4984481;28;20185;-61
2022/11/27 09:52:39;;;;;;;5.73;2.90;;;;;;;;;;4996834;28;20317;-61
2022/11/27 09:55:17;;;;;;;4.93;3.07;;;;;;;;;;4987116;28;20444;-61
2022/11/27 09:57:50;;;;;;;4.20;2.90;;;;;;;;;;4995879;28;20182;-61
2022/11/27 10:00:17;;;;;;;5.07;2.87;;;;;;;;;;4998217;28;20227;-61
2022/11/27 10:02:44;;;;;;;7.73;3.13;;;;;;;;;;4998290;28;20604;-61
2022/11/27 10:05:16;;;;;;;3.40;2.73;;;;;;;;;;4984201;28;20202;-61
2022/11/27 10:08:07;;;;;;;2.67;2.47;;;;;;;;;;4993719;28;20603;-61
2022/11/27 10:10:39;;;;;;;5.00;3.20;;;;;;;;;;4994086;28;20182;-61
2022/11/27 10:13:14;;;;;;;2.50;2.30;;;;;;;;;;4997359;28;20257;-61
2022/11/27 10:15:47;;;;;;;4.57;3.00;;;;;;;;;;4990421;28;20218;-61
2022/11/27 10:18:23;;;;;;;5.53;3.03;;;;;;;;;;4990476;28;20253;-61
2022/11/27 10:20:56;;;;;;;2.93;2.27;;;;;;;;;;5005181;28;20178;-62
2022/11/27 10:23:51;;;;;;;5.10;3.17;;;;;;;;;;4969802;28;20175;-62
2022/11/27 10:26:19;;;;;;;2.97;2.73;;;;;;;;;;4978392;28;20226;-61
2022/11/27 10:28:55;;;;;;;3.77;2.67;;;;;;;;;;5004640;28;20183;-61
2022/11/27 10:31:33;;;;;;;3.10;2.37;;;;;;;;;;4992536;28;20567;-61
2022/11/27 10:34:04;;;;;;;3.37;2.63;;;;;;;;;;4976871;28;20182;-61
2022/11/27 10:36:38;;;;;;;4.30;2.80;;;;;;;;;;4991538;28;20547;-61
2022/11/27 10:39:06;;;;;;;4.87;2.40;;;;;;;;;;5009703;28;20241;-61
2022/11/27 10:41:34;;;;;;;4.30;2.90;;;;;;;;;;4992551;28;20266;-61
2022/11/27 10:44:03;;;;;;;4.90;3.00;;;;;;;;;;4987949;28;20597;-61
2022/11/27 10:46:33;;;;;;;3.40;2.93;;;;;;;;;;4995445;28;20226;-61
2022/11/27 10:48:59;;;;;;;5.67;2.93;;;;;;;;;;4975027;28;20195;-61
2022/11/27 10:51:30;;;;;;;3.40;2.50;;;;;;;;;;5003283;28;20229;-61
2022/11/27 10:53:59;;;;;;;3.70;3.20;;;;;;;;;;4993735;28;20183;-61
2022/11/27 10:56:36;;;;;;;4.67;2.70;;;;;;;;;;4996397;28;20234;-61
2022/11/27 10:59:13;;;;;;;4.27;3.23;;;;;;;;;;4997340;28;20201;-61
2022/11/27 11:01:42;;;;;;;3.10;2.80;;;;;;;;;;4988803;28;20592;-61
2022/11/27 11:04:09;;;;;;;5.63;3.23;;;;;;;;;;4997259;28;20171;-61
2022/11/27 11:06:47;;;;;;;4.20;3.27;;;;;;;;;;4977655;28;20275;-61
2022/11/27 11:09:13;;;;;;;3.90;2.70;;;;;;;;;;4981107;28;20261;-61
2022/11/27 11:11:40;;;;;;;3.43;3.00;;;;;;;;;;4976767;28;20257;-61
2022/11/27 11:14:19;;;;;;;4.43;3.30;;;;;;;;;;4975162;28;20224;-61
2022/11/27 11:16:46;;;;;;;3.97;3.07;;;;;;;;;;4973791;28;20321;-62
2022/11/27 11:19:21;;;;;;;4.87;3.43;;;;;;;;;;4981142;28;20180;-62
2022/11/27 11:21:54;;;;;;;4.40;3.57;;;;;;;;;;5001457;28;20167;-62
2022/11/27 11:24:30;;;;;;;4.33;3.13;;;;;;;;;;4981501;28;20863;-61
2022/11/27 11:26:58;;;;;;;3.87;2.73;;;;;;;;;;4989443;28;20178;-61
2022/11/27 11:29:43;;;;;;;4.77;3.60;;;;;;;;;;4997102;28;20175;-61
2022/11/27 11:32:10;;;;;;;3.33;2.70;;;;;;;;;;4971697;28;20277;-61
2022/11/27 11:34:41;;;;;;;2.87;2.67;;;;;;;;;;4993008;28;20175;-61
2022/11/27 11:37:09;;;;;;;5.73;3.00;;;;;;;;;;4994786;28;20506;-61
2022/11/27 11:39:45;;;;;;;4.33;2.90;;;;;;;;;;4973452;28;20183;-61
2022/11/27 11:42:18;;;;;;;3.17;2.87;;;;;;;;;;5001300;28;20653;-61
2022/11/27 11:44:49;;;;;;;5.43;3.60;;;;;;;;;;4999535;28;20576;-61
2022/11/27 11:47:17;;;;;;;4.30;3.47;;;;;;;;;;5003473;28;20205;-61
2022/11/27 11:49:43;;;;;;;5.60;2.90;;;;;;;;;;4993963;28;20185;-61
2022/11/27 11:52:12;;;;;;;3.90;3.20;;;;;;;;;;5000798;28;20281;-61
2022/11/27 11:54:38;;;;;;;4.77;3.10;;;;;;;;;;4985769;28;20546;-61
2022/11/27 11:57:07;;;;;;;3.50;3.20;;;;;;;;;;4993265;28;20205;-61
2022/11/27 11:59:41;;;;;;;5.80;3.43;;;;;;;;;;4997047;28;20188;-61
2022/11/27 12:02:13;;;;;;;8.40;3.30;;;;;;;;;;4988212;28;20172;-61
2022/11/27 12:04:57;;;;;;;6.03;3.50;;;;;;;;;;4991057;28;20606;-61
2022/11/27 12:07:38;;;;;;;3.87;2.80;;;;;;;;;;4991179;28;20187;-61
2022/11/27 12:10:21;;;;;;;3.37;2.73;;;;;;;;;;4992866;28;20185;-61
2022/11/27 12:12:52;;;;;;;5.83;2.90;;;;;;;;;;4988411;28;20213;-61
2022/11/27 12:15:23;;;;;;;3.67;2.83;;;;;;;;;;5000073;28;20202;-61
2022/11/27 12:18:19;;;;;;;4.57;2.70;;;;;;;;;;4998951;28;20534;-61
2022/11/27 12:20:50;;;;;;;5.47;3.40;;;;;;;;;;4968065;28;20620;-62
2022/11/27 12:23:35;;;;;;;4.67;3.37;;;;;;;;;;4986773;28;20742;-61
2022/11/27 12:26:17;;;;;;;3.57;2.97;;;;;;;;;;5003085;28;20181;-61
2022/11/27 12:28:51;;;;;;;4.90;3.00;;;;;;;;;;5000755;28;20499;-61
2022/11/27 12:31:17;;;;;;;4.03;2.90;;;;;;;;;;4999073;28;20188;-63
2022/11/27 12:33:49;;;;;;;4.63;3.27;;;;;;;;;;4981389;28;20245;-60
2022/11/27 12:36:30;;;;;;;4.63;2.87;;;;;;;;;;4990164;28;20246;-63
2022/11/27 12:38:56;;;;;;;3.50;2.90;;;;;;;;;;5001050;28;20715;-63
2022/11/27 12:41:42;;;;;;;4.57;3.00;;;;;;;;;;4986388;28;20182;-60
2022/11/27 12:44:17;;;;;;;4.97;3.50;;;;;;;;;;4983949;28;20194;-63
2022/11/27 12:47:08;;;;;;;4.03;3.13;;;;;;;;;;4997573;28;20550;-65
2022/11/27 12:49:40;;;;;;;3.03;2.70;;;;;;;;;;5001971;28;20182;-62
2022/11/27 12:52:13;;;;;;;3.87;2.83;;;;;;;;;;5001092;28;20317;-59
2022/11/27 12:54:58;;;;;;;4.07;2.53;;;;;;;;;;4998441;28;20166;-59
2022/11/27 12:57:35;;;;;;;3.07;2.67;;;;;;;;;;4989547;28;20234;-59
2022/11/27 13:00:04;;;;;;;8.23;2.80;;;;;;;;;;5001440;28;20672;-59
2022/11/27 13:02:56;;;;;;;3.73;2.80;;;;;;;;;;4993056;28;20278;-59
2022/11/27 13:05:32;;;;;;;6.97;3.07;;;;;;;;;;4995693;28;20744;-59
2022/11/27 13:08:01;;;;;;;4.10;3.27;;;;;;;;;;4988499;28;20633;-59
2022/11/27 13:10:41;;;;;;;3.93;3.10;;;;;;;;;;5006682;28;20214;-59
2022/11/27 13:13:27;;;;;;;4.23;2.47;;;;;;;;;;5006772;28;20325;-59
2022/11/27 13:16:17;;;;;;;3.70;2.90;;;;;;;;;;4995934;28;20246;-59
2022/11/27 13:18:47;;;;;;;3.40;2.80;;;;;;;;;;4968385;28;20182;-59
2022/11/27 13:21:16;;;;;;;4.00;3.13;;;;;;;;;;4980303;28;20361;-59
2022/11/27 13:23:42;;;;;;;4.03;2.50;;;;;;;;;;4995086;28;20158;-59
2022/11/27 13:26:14;;;;;;;3.57;2.43;;;;;;;;;;4998990;28;21016;-59
2022/11/27 13:28:40;;;;;;;4.47;2.90;;;;;;;;;;5000862;28;20179;-59
2022/11/27 13:31:06;;;;;;;4.50;2.93;;;;;;;;;;5001900;28;20682;-59
2022/11/27 13:33:33;;;;;;;4.07;2.90;;;;;;;;;;5005727;28;20233;-59
2022/11/27 13:36:00;;;;;;;3.33;2.73;;;;;;;;;;4997575;28;20202;-59
2022/11/27 13:38:26;;;;;;;5.13;2.83;;;;;;;;;;5003326;28;20179;-59
2022/11/27 13:40:54;;;;;;;4.07;3.03;;;;;;;;;;5001610;28;20477;-59
2022/11/27 13:43:27;;;;;;;4.83;2.87;;;;;;;;;;4996593;28;20187;-59
2022/11/27 13:45:59;;;;;;;4.67;3.33;;;;;;;;;;5001276;28;20163;-59
2022/11/27 13:48:32;;;;;;;6.63;2.83;;;;;;;;;;4988077;28;20857;-59
2022/11/27 13:50:58;;;;;;;3.77;2.83;;;;;;;;;;4989199;28;20214;-59
2022/11/27 13:53:50;;;;;;;5.10;3.13;;;;;;;;;;4994535;28;20725;-59
2022/11/27 13:56:27;;;;;;;3.70;2.73;;;;;;;;;;5000118;28;20222;-59
2022/11/27 13:58:53;;;;;;;3.10;2.83;;;;;;;;;;4974893;28;20166;-59
2022/11/27 14:01:24;;;;;;;3.70;2.50;;;;;;;;;;4998561;28;20622;-59
2022/11/27 14:03:50;;;;;;;4.07;2.63;;;;;;;;;;5005233;28;20171;-59
2022/11/27 14:06:26;;;;;;;3.50;2.53;;;;;;;;;;4990946;28;20634;-59
2022/11/27 14:08:54;;;;;;;3.10;2.80;;;;;;;;;;4999578;28;20703;-59
2022/11/27 14:11:35;;;;;;;6.57;3.40;;;;;;;;;;4997995;28;20534;-59
2022/11/27 14:14:02;;;;;;;5.77;3.10;;;;;;;;;;5005616;28;20185;-59
2022/11/27 14:16:28;;;;;;;6.53;3.10;;;;;;;;;;4997685;28;20213;-59
2022/11/27 14:18:57;;;;;;;4.50;3.33;;;;;;;;;;5004839;28;20171;-59
2022/11/27 14:21:37;;;;;;;2.90;2.50;;;;;;;;;;4997598;28;20176;-59
2022/11/27 14:24:05;;;;;;;3.10;2.83;;;;;;;;;;4997174;28;20672;-59
2022/11/27 14:26:31;;;;;;;3.70;3.00;;;;;;;;;;4997403;28;20710;-59
2022/11/27 14:28:59;;;;;;;3.37;2.63;;;;;;;;;;4987611;28;20273;-58
2022/11/27 14:31:32;;;;;;;4.67;2.83;;;;;;;;;;4980076;28;20210;-59
2022/11/27 14:34:01;;;;;;;3.40;2.93;;;;;;;;;;4999488;28;20262;-58
2022/11/27 14:36:33;;;;;;;3.17;2.53;;;;;;;;;;4995348;28;20229;-59
2022/11/27 14:38:59;;;;;;;2.50;2.30;;;;;;;;;;4992712;28;20179;-59
2022/11/27 14:41:26;;;;;;;2.60;2.40;;;;;;;;;;4994432;28;20869;-59
2022/11/27 14:44:05;;;;;;;2.90;2.70;;;;;;;;;;4997652;28;20201;-59
2022/11/27 14:46:33;;;;;;;5.37;2.70;;;;;;;;;;4995519;28;20729;-59
2022/11/27 14:48:59;;;;;;;3.37;2.80;;;;;;;;;;4996111;28;20250;-59
2022/11/27 14:51:26;;;;;;;5.20;2.83;;;;;;;;;;5006785;28;20267;-59
2022/11/27 14:54:18;;;;;;;2.50;2.30;;;;;;;;;;4997067;28;20257;-59
2022/11/27 14:56:45;;;;;;;2.60;2.40;;;;;;;;;;4989808;28;20511;-59